createdAt,value
2023-02-14T00:02:08.322Z,5.65
2023-02-14T00:04:38.631Z,5.59
2023-02-14T00:07:21.993Z,5.61
2023-02-14T00:09:48.836Z,5.77
2023-02-14T00:12:21.435Z,5.74
2023-02-14T00:15:07.353Z,5.51
2023-02-14T00:17:37.220Z,5.56
2023-02-14T00:20:09.831Z,5.53
2023-02-14T00:22:42.079Z,5.56
2023-02-14T00:25:09.090Z,5.75
2023-02-14T00:27:44.849Z,5.57
2023-02-14T00:30:21.072Z,5.59
2023-02-14T00:32:54.370Z,5.65
2023-02-14T00:35:28.910Z,5.57
2023-02-14T00:37:55.698Z,5.62
2023-02-14T00:40:22.692Z,5.50
2023-02-14T00:42:49.463Z,5.53
2023-02-14T00:45:25.610Z,5.46
2023-02-14T00:47:59.314Z,5.53
2023-02-14T00:50:31.394Z,5.58
2023-02-14T00:52:58.211Z,5.47
2023-02-14T00:55:29.437Z,5.49
2023-02-14T00:57:57.108Z,5.44
2023-02-14T01:00:28.680Z,5.48
2023-02-14T01:03:02.872Z,5.44
2023-02-14T01:05:30.554Z,5.31
2023-02-14T01:08:17.153Z,5.36
2023-02-14T01:10:54.497Z,5.33
2023-02-14T01:16:20.938Z,5.56
2023-02-14T01:18:51.413Z,5.51
2023-02-14T01:21:21.871Z,5.45
2023-02-14T01:23:51.410Z,5.30
2023-02-14T01:26:33.732Z,5.27
2023-02-14T01:29:18.401Z,5.22
2023-02-14T01:31:45.321Z,5.10
2023-02-14T01:34:12.054Z,5.21
2023-02-14T01:36:39.716Z,5.26
2023-02-14T01:39:16.865Z,5.21
2023-02-14T01:41:44.967Z,5.32
2023-02-14T01:44:20.880Z,5.17
2023-02-14T01:47:06.326Z,5.27
2023-02-14T01:53:05.691Z,5.17
2023-02-14T01:55:42.437Z,5.21
2023-02-14T02:00:57.933Z,5.35
2023-02-14T02:03:32.997Z,5.11
2023-02-14T02:06:15.407Z,5.17
2023-02-14T02:09:12.569Z,5.35
2023-02-14T02:11:43.300Z,5.52
2023-02-14T02:14:21.323Z,5.26
2023-02-14T02:17:03.572Z,5.24
2023-02-14T02:19:48.474Z,5.19
2023-02-14T02:22:51.681Z,5.36
2023-02-14T02:25:42.697Z,5.16
2023-02-14T02:28:47.213Z,5.17
2023-02-14T02:31:37.868Z,5.11
2023-02-14T02:34:22.789Z,5.10
2023-02-14T02:37:23.826Z,5.04
2023-02-14T02:40:12.094Z,4.99
2023-02-14T02:42:51.110Z,4.98
2023-02-14T02:46:18.648Z,4.88
2023-02-14T02:49:04.897Z,4.80
2023-02-14T02:52:13.509Z,4.86
2023-02-14T02:54:54.996Z,4.88
2023-02-14T02:57:44.132Z,5.10
2023-02-14T03:00:14.262Z,4.98
2023-02-14T03:03:13.714Z,4.89
2023-02-14T03:05:45.250Z,4.90
2023-02-14T03:08:20.937Z,5.00
2023-02-14T03:10:47.800Z,4.90
2023-02-14T03:13:37.532Z,4.83
2023-02-14T03:16:40.060Z,4.97
2023-02-14T03:19:49.801Z,5.02
2023-02-14T03:22:39.850Z,5.18
2023-02-14T03:25:16.777Z,4.99
2023-02-14T03:28:18.787Z,4.80
2023-02-14T03:33:35.782Z,4.79
2023-02-14T03:36:18.009Z,4.84
2023-02-14T03:39:25.869Z,5.04
2023-02-14T03:42:13.820Z,5.13
2023-02-14T03:44:47.693Z,5.06
2023-02-14T03:47:28.457Z,4.88
2023-02-14T03:50:04.473Z,4.73
2023-02-14T03:52:40.603Z,4.78
2023-02-14T03:55:17.743Z,4.71
2023-02-14T03:58:23.556Z,4.74
2023-02-14T04:00:58.204Z,4.73
2023-02-14T04:03:34.879Z,4.85
2023-02-14T04:06:07.954Z,4.78
2023-02-14T04:08:35.901Z,4.85
2023-02-14T04:11:06.710Z,4.88
2023-02-14T04:13:39.652Z,4.94
2023-02-14T04:16:07.528Z,4.81
2023-02-14T04:18:55.599Z,4.71
2023-02-14T04:21:28.062Z,4.59
2023-02-14T04:23:57.163Z,4.54
2023-02-14T04:26:23.867Z,4.63
2023-02-14T04:28:52.838Z,4.75
2023-02-14T04:31:22.450Z,4.74
2023-02-14T04:33:57.182Z,4.91
2023-02-14T04:36:23.985Z,4.80
2023-02-14T04:38:50.787Z,4.73
2023-02-14T04:41:18.345Z,4.72
2023-02-14T04:43:54.160Z,4.78
2023-02-14T04:46:21.528Z,4.66
2023-02-14T04:48:58.576Z,4.67
2023-02-14T04:51:43.151Z,4.78
2023-02-14T04:54:14.221Z,4.84
2023-02-14T04:56:50.631Z,4.76
2023-02-14T04:59:20.723Z,4.64
2023-02-14T05:01:50.091Z,4.80
2023-02-14T05:04:17.008Z,4.73
2023-02-14T05:06:43.989Z,4.76
2023-02-14T05:09:10.887Z,4.67
2023-02-14T05:11:40.151Z,4.61
2023-02-14T05:14:23.094Z,4.80
2023-02-14T05:16:49.882Z,4.66
2023-02-14T05:19:19.493Z,4.73
2023-02-14T05:21:51.052Z,4.66
2023-02-14T05:24:35.185Z,4.70
2023-02-14T05:27:01.981Z,4.62
2023-02-14T05:29:28.821Z,4.70
2023-02-14T05:31:57.430Z,4.78
2023-02-14T05:34:33.248Z,4.85
2023-02-14T05:37:04.022Z,4.78
2023-02-14T05:39:37.334Z,4.70
2023-02-14T05:42:04.371Z,4.72
2023-02-14T05:44:31.520Z,4.77
2023-02-14T05:46:58.780Z,4.81
2023-02-14T05:49:26.689Z,4.75
2023-02-14T05:51:56.705Z,4.71
2023-02-14T05:54:23.460Z,4.66
2023-02-14T05:56:50.255Z,4.88
2023-02-14T05:59:29.672Z,4.82
2023-02-14T06:02:00.373Z,4.89
2023-02-14T06:04:33.583Z,5.18
2023-02-14T06:07:05.152Z,4.88
2023-02-14T06:09:37.628Z,4.96
2023-02-14T06:12:08.620Z,4.97
2023-02-14T06:14:36.954Z,4.89
2023-02-14T06:17:09.142Z,4.95
2023-02-14T06:19:37.169Z,5.08
2023-02-14T06:22:04.647Z,5.06
2023-02-14T06:24:31.509Z,5.13
2023-02-14T06:27:01.526Z,5.14
2023-02-14T06:29:38.124Z,5.11
2023-02-14T06:34:41.098Z,5.03
2023-02-14T06:37:19.386Z,4.95
2023-02-14T06:39:46.583Z,4.88
2023-02-14T06:42:19.801Z,4.87
2023-02-14T06:44:58.766Z,4.97
2023-02-14T06:47:30.019Z,5.02
2023-02-14T06:50:02.501Z,5.05
2023-02-14T06:52:50.530Z,5.02
2023-02-14T06:55:21.042Z,5.03
2023-02-14T06:57:48.065Z,5.00
2023-02-14T07:00:18.656Z,5.09
2023-02-14T07:02:45.970Z,5.11
2023-02-14T07:05:15.791Z,5.15
2023-02-14T07:07:45.717Z,5.23
2023-02-14T07:10:16.607Z,5.34
2023-02-14T07:12:47.915Z,5.38
2023-02-14T07:15:16.718Z,5.52
2023-02-14T07:17:52.758Z,5.92
2023-02-14T07:20:22.557Z,5.96
2023-02-14T07:22:54.511Z,6.08
2023-02-14T07:25:27.790Z,6.13
2023-02-14T07:30:40.419Z,6.18
2023-02-14T07:33:07.376Z,6.31
2023-02-14T07:35:35.459Z,6.47
2023-02-14T07:38:09.703Z,6.62
2023-02-14T07:40:36.384Z,6.92
2023-02-14T07:43:03.866Z,7.14
2023-02-14T07:45:30.683Z,7.12
2023-02-14T07:48:02.383Z,7.30
2023-02-14T07:50:29.677Z,7.59
2023-02-14T07:53:00.296Z,7.92
2023-02-14T07:55:33.955Z,8.08
2023-02-14T07:58:07.118Z,8.06
2023-02-14T08:00:52.414Z,8.22
2023-02-14T08:03:25.676Z,8.56
2023-02-14T08:06:10.699Z,8.53
2023-02-14T08:08:44.998Z,8.51
2023-02-14T08:11:12.340Z,8.54
2023-02-14T08:13:39.112Z,8.55
2023-02-14T08:16:09.872Z,8.59
2023-02-14T08:21:18.373Z,8.95
2023-02-14T08:23:47.495Z,9.22
2023-02-14T08:26:14.787Z,8.97
2023-02-14T08:28:41.947Z,8.99
2023-02-14T08:31:15.910Z,8.95
2023-02-14T08:33:45.154Z,8.90
2023-02-14T08:36:15.144Z,8.95
2023-02-14T08:38:48.321Z,9.20
2023-02-14T08:41:21.485Z,8.99
2023-02-14T08:43:49.891Z,9.06
2023-02-14T08:46:21.605Z,9.08
2023-02-14T08:48:52.973Z,9.05
2023-02-14T08:51:22.847Z,9.03
2023-02-14T08:53:53.389Z,8.99
2023-02-14T08:56:41.420Z,8.96
2023-02-14T08:59:10.637Z,9.19
2023-02-14T09:01:40.607Z,9.21
2023-02-14T09:04:13.454Z,9.35
2023-02-14T09:06:55.450Z,9.60
2023-02-14T09:09:22.140Z,9.75
2023-02-14T09:11:51.726Z,9.67
2023-02-14T09:14:50.517Z,9.63
2023-02-14T09:17:17.633Z,9.75
2023-02-14T09:19:47.726Z,9.64
2023-02-14T09:22:17.027Z,9.74
2023-02-14T09:24:46.223Z,9.78
2023-02-14T09:27:20.237Z,9.85
2023-02-14T09:29:47.077Z,9.92
2023-02-14T09:35:11.141Z,10.25
2023-02-14T09:37:56.388Z,10.27
2023-02-14T09:40:25.925Z,10.20
2023-02-14T09:43:07.282Z,10.32
2023-02-14T09:45:34.927Z,10.40
2023-02-14T09:48:11.026Z,10.42
2023-02-14T09:51:20.438Z,10.67
2023-02-14T09:53:56.103Z,10.62
2023-02-14T09:57:00.422Z,10.78
2023-02-14T09:59:51.850Z,10.97
2023-02-14T10:02:40.121Z,11.09
2023-02-14T10:06:12.707Z,11.10
2023-02-14T10:09:12.976Z,11.28
2023-02-14T10:11:44.256Z,11.51
2023-02-14T10:14:30.129Z,11.66
2023-02-14T10:17:45.810Z,11.84
2023-02-14T10:20:39.039Z,11.99
2023-02-14T10:24:01.165Z,12.17
2023-02-14T10:26:51.311Z,12.27
2023-02-14T10:29:28.941Z,12.41
2023-02-14T10:32:09.261Z,12.57
2023-02-14T10:34:46.412Z,12.67
2023-02-14T10:41:04.442Z,12.93
2023-02-14T10:44:15.323Z,13.09
2023-02-14T10:47:02.005Z,13.25
2023-02-14T10:50:09.739Z,13.25
2023-02-14T10:53:06.453Z,13.52
2023-02-14T10:56:23.281Z,13.57
2023-02-14T11:01:39.436Z,13.45
2023-02-14T11:04:15.358Z,13.47
2023-02-14T11:06:57.616Z,13.30
2023-02-14T11:09:24.891Z,13.45
2023-02-14T11:12:00.148Z,13.38
2023-02-14T11:15:03.474Z,13.27
2023-02-14T11:17:41.815Z,13.20
2023-02-14T11:20:26.681Z,13.13
2023-02-14T11:22:57.146Z,13.19
2023-02-14T11:25:36.786Z,13.26
2023-02-14T11:28:17.612Z,13.24
2023-02-14T11:30:47.853Z,13.26
2023-02-14T11:33:43.056Z,13.41
2023-02-14T11:36:17.713Z,13.43
2023-02-14T11:38:46.191Z,13.50
2023-02-14T11:41:16.403Z,13.36
2023-02-14T11:43:53.286Z,13.32
2023-02-14T11:46:28.712Z,13.10
2023-02-14T11:49:27.652Z,13.07
2023-02-14T11:52:04.260Z,13.35
2023-02-14T11:54:43.149Z,13.53
2023-02-14T11:57:22.789Z,13.60
2023-02-14T11:59:54.934Z,13.56
2023-02-14T12:02:28.252Z,13.57
2023-02-14T12:05:04.437Z,13.58
2023-02-14T12:07:37.981Z,13.64
2023-02-14T12:10:22.760Z,13.70
2023-02-14T12:13:00.248Z,13.89
2023-02-14T12:15:54.618Z,13.74
2023-02-14T12:18:34.051Z,13.49
2023-02-14T12:21:16.450Z,13.72
2023-02-14T12:23:51.540Z,13.72
2023-02-14T12:26:43.362Z,13.67
2023-02-14T12:29:21.541Z,13.88
2023-02-14T12:31:56.947Z,13.94
2023-02-14T12:34:28.607Z,14.06
2023-02-14T12:36:58.366Z,14.13
2023-02-14T12:40:00.862Z,13.80
2023-02-14T12:42:53.074Z,13.70
2023-02-14T12:45:54.316Z,13.86
2023-02-14T12:52:34.092Z,14.07
2023-02-14T12:55:39.892Z,14.03
2023-02-14T12:58:49.257Z,14.22
2023-02-14T13:01:58.170Z,14.16
2023-02-14T13:08:27.022Z,14.19
2023-02-14T13:11:19.464Z,14.27
2023-02-14T13:13:55.700Z,14.16
2023-02-14T13:17:15.688Z,14.35
2023-02-14T13:20:19.103Z,14.27
2023-02-14T13:23:07.387Z,14.46
2023-02-14T13:25:50.119Z,14.63
2023-02-14T13:28:20.877Z,14.57
2023-02-14T13:30:58.259Z,14.54
2023-02-14T13:34:05.950Z,14.67
2023-02-14T13:36:36.923Z,14.60
2023-02-14T13:39:04.917Z,14.70
2023-02-14T13:41:32.754Z,14.68
2023-02-14T13:44:06.910Z,14.58
2023-02-14T13:47:10.420Z,14.40
2023-02-14T13:49:50.347Z,14.04
2023-02-14T13:52:47.499Z,14.32
2023-02-14T13:55:48.836Z,14.43
2023-02-14T13:58:31.960Z,14.45
2023-02-14T14:01:47.030Z,14.66
2023-02-14T14:04:37.417Z,14.87
2023-02-14T14:07:15.712Z,14.95
2023-02-14T14:09:51.716Z,14.56
2023-02-14T14:12:30.902Z,14.53
2023-02-14T14:15:07.616Z,14.70
2023-02-14T14:17:41.832Z,14.48
2023-02-14T14:20:27.790Z,14.44
2023-02-14T14:22:56.862Z,14.24
2023-02-14T14:25:38.560Z,14.18
2023-02-14T14:28:19.804Z,14.02
2023-02-14T14:30:52.191Z,14.13
2023-02-14T14:33:49.163Z,14.35
2023-02-14T14:36:27.520Z,14.51
2023-02-14T14:39:10.337Z,14.39
2023-02-14T14:41:45.453Z,14.07
2023-02-14T14:44:16.654Z,14.28
2023-02-14T14:47:03.658Z,14.22
2023-02-14T14:49:33.630Z,14.06
2023-02-14T14:52:01.992Z,14.12
2023-02-14T14:54:38.053Z,13.92
2023-02-14T14:57:07.816Z,13.80
2023-02-14T14:59:40.913Z,13.93
2023-02-14T15:02:45.136Z,14.07
2023-02-14T15:05:55.848Z,13.90
2023-02-14T15:08:33.085Z,13.97
2023-02-14T15:11:06.260Z,14.34
2023-02-14T15:14:23.510Z,14.31
2023-02-14T15:17:13.694Z,14.45
2023-02-14T15:19:59.606Z,14.30
2023-02-14T15:22:44.985Z,14.36
2023-02-14T15:25:21.002Z,14.40
2023-02-14T15:27:49.706Z,14.61
2023-02-14T15:30:19.603Z,14.52
2023-02-14T15:32:59.366Z,14.43
2023-02-14T15:35:33.994Z,14.52
2023-02-14T15:38:07.062Z,14.40
2023-02-14T15:40:42.677Z,14.16
2023-02-14T15:43:25.371Z,13.89
2023-02-14T15:46:00.463Z,13.89
2023-02-14T15:48:32.680Z,13.80
2023-02-14T15:51:11.691Z,13.62
2023-02-14T15:53:45.802Z,13.56
2023-02-14T15:56:30.018Z,13.52
2023-02-14T15:59:20.411Z,13.62
2023-02-14T16:02:18.273Z,13.51
2023-02-14T16:04:53.835Z,13.37
2023-02-14T16:07:33.256Z,13.28
2023-02-14T16:10:44.568Z,13.25
2023-02-14T16:13:17.204Z,13.15
2023-02-14T16:16:07.207Z,13.06
2023-02-14T16:18:56.997Z,13.05
2023-02-14T16:21:30.525Z,13.08
2023-02-14T16:24:12.680Z,12.97
2023-02-14T16:26:52.437Z,12.91
2023-02-14T16:29:25.728Z,12.85
2023-02-14T16:32:15.212Z,12.92
2023-02-14T16:34:45.899Z,12.85
2023-02-14T16:37:44.561Z,12.77
2023-02-14T16:40:35.440Z,12.67
2023-02-14T16:43:14.864Z,12.64
2023-02-14T16:45:49.444Z,12.66
2023-02-14T16:48:16.292Z,12.50
2023-02-14T16:50:44.369Z,12.54
2023-02-14T16:53:37.317Z,12.53
2023-02-14T16:56:13.205Z,12.40
2023-02-14T16:58:53.161Z,12.21
2023-02-14T17:01:23.218Z,12.03
2023-02-14T17:03:53.465Z,12.01
2023-02-14T17:06:34.447Z,12.01
2023-02-14T17:09:23.310Z,11.98
2023-02-14T17:11:56.231Z,11.87
2023-02-14T17:14:45.698Z,11.88
2023-02-14T17:17:21.265Z,12.00
2023-02-14T17:19:54.325Z,11.94
2023-02-14T17:22:25.502Z,11.95
2023-02-14T17:24:57.167Z,11.89
2023-02-14T17:27:28.587Z,11.74
2023-02-14T17:30:00.931Z,11.78
2023-02-14T17:32:27.935Z,11.77
2023-02-14T17:35:08.649Z,11.70
2023-02-14T17:37:39.861Z,11.68
2023-02-14T17:40:09.452Z,11.63
2023-02-14T17:42:36.748Z,11.71
2023-02-14T17:45:06.250Z,11.82
2023-02-14T17:47:35.227Z,11.82
2023-02-14T17:50:08.541Z,11.71
2023-02-14T17:52:36.460Z,11.76
2023-02-14T17:55:06.729Z,11.60
2023-02-14T17:57:38.140Z,11.48
2023-02-14T18:00:22.137Z,11.48
2023-02-14T18:02:57.725Z,11.43
2023-02-14T18:05:26.357Z,11.51
2023-02-14T18:08:01.580Z,11.40
2023-02-14T18:16:27.792Z,11.11
2023-02-14T18:19:02.175Z,10.98
2023-02-14T18:21:47.940Z,10.85
2023-02-14T18:24:37.221Z,10.83
2023-02-14T18:27:07.575Z,10.74
2023-02-14T18:29:36.982Z,10.69
2023-02-14T18:32:05.166Z,10.73
2023-02-14T18:34:40.619Z,10.82
2023-02-14T18:37:40.862Z,11.01
2023-02-14T18:40:20.410Z,10.73
2023-02-14T18:42:53.390Z,10.66
2023-02-14T18:45:31.643Z,10.63
2023-02-14T18:48:06.331Z,10.50
2023-02-14T18:50:35.479Z,10.33
2023-02-14T18:53:06.190Z,10.21
2023-02-14T18:55:33.882Z,10.20
2023-02-14T18:58:07.841Z,10.23
2023-02-14T19:00:38.001Z,10.26
2023-02-14T19:03:09.709Z,10.22
2023-02-14T19:05:43.369Z,10.24
2023-02-14T19:08:16.200Z,10.13
2023-02-14T19:10:48.756Z,10.00
2023-02-14T19:13:20.924Z,9.92
2023-02-14T19:15:48.586Z,9.82
2023-02-14T19:18:25.572Z,9.87
2023-02-14T19:21:00.050Z,9.85
2023-02-14T19:23:31.623Z,9.79
2023-02-14T19:26:00.783Z,9.71
2023-02-14T19:29:11.145Z,9.62
2023-02-14T19:32:14.066Z,9.75
2023-02-14T19:35:18.074Z,9.54
2023-02-14T19:38:08.636Z,9.51
2023-02-14T19:40:57.653Z,9.40
2023-02-14T19:43:27.929Z,9.47
2023-02-14T19:45:56.341Z,9.52
2023-02-14T19:48:40.036Z,9.55
2023-02-14T19:51:19.275Z,9.59
2023-02-14T19:53:55.241Z,9.68
2023-02-14T19:56:40.339Z,9.46
2023-02-14T19:59:46.685Z,9.33
2023-02-14T20:02:45.389Z,9.26
2023-02-14T20:05:21.103Z,9.09
2023-02-14T20:07:54.660Z,9.07
2023-02-14T20:10:39.108Z,9.01
2023-02-14T20:13:17.546Z,9.09
2023-02-14T20:15:59.653Z,9.10
2023-02-14T20:18:29.972Z,9.04
2023-02-14T20:21:03.119Z,8.95
2023-02-14T20:23:36.964Z,8.98
2023-02-14T20:26:13.769Z,8.89
2023-02-14T20:28:43.546Z,8.80
2023-02-14T20:31:21.266Z,8.82
2023-02-14T20:34:04.885Z,9.07
2023-02-14T20:36:41.577Z,9.14
2023-02-14T20:39:27.473Z,9.48
2023-02-14T20:44:51.065Z,9.98
2023-02-14T20:47:30.658Z,9.71
2023-02-14T20:50:01.931Z,9.37
2023-02-14T20:52:43.054Z,9.11
2023-02-14T20:55:12.479Z,9.00
2023-02-14T20:58:24.312Z,8.92
2023-02-14T21:01:08.416Z,8.78
2023-02-14T21:03:58.482Z,8.80
2023-02-14T21:06:51.813Z,8.65
2023-02-14T21:09:33.160Z,8.62
2023-02-14T21:12:14.839Z,8.52
2023-02-14T21:14:55.604Z,8.45
2023-02-14T21:17:30.895Z,8.31
2023-02-14T21:20:01.400Z,8.19
2023-02-14T21:22:30.922Z,8.24
2023-02-14T21:24:58.713Z,8.27
2023-02-14T21:27:25.994Z,8.34
2023-02-14T21:29:59.269Z,8.43
2023-02-14T21:32:32.248Z,8.38
2023-02-14T21:35:08.955Z,8.31
2023-02-14T21:37:50.418Z,8.18
2023-02-14T21:40:23.743Z,8.16
2023-02-14T21:43:05.100Z,8.21
2023-02-14T21:45:58.736Z,8.11
2023-02-14T21:48:56.533Z,8.19
2023-02-14T21:51:36.161Z,8.04
2023-02-14T21:54:04.064Z,8.12
2023-02-14T21:56:39.578Z,8.03
2023-02-14T21:59:06.514Z,7.99
2023-02-14T22:01:52.660Z,8.02
2023-02-14T22:04:25.340Z,8.34
2023-02-14T22:06:57.432Z,8.09
2023-02-14T22:09:24.299Z,8.20
2023-02-14T22:11:58.974Z,8.22
2023-02-14T22:14:31.412Z,8.01
2023-02-14T22:17:00.972Z,7.93
2023-02-14T22:19:37.544Z,8.11
2023-02-14T22:22:08.441Z,8.01
2023-02-14T22:24:48.723Z,8.00
2023-02-14T22:27:46.609Z,7.91
2023-02-14T22:30:14.123Z,7.67
2023-02-14T22:32:58.575Z,7.70
2023-02-14T22:35:28.413Z,7.74
2023-02-14T22:38:01.366Z,7.76
2023-02-14T22:40:38.893Z,7.64
2023-02-14T22:43:12.000Z,7.54
2023-02-14T22:46:04.727Z,7.53
2023-02-14T22:48:43.917Z,7.47
2023-02-14T22:51:27.233Z,7.49
2023-02-14T22:54:17.062Z,7.53
2023-02-14T22:59:36.427Z,7.46
2023-02-14T23:02:18.009Z,7.61
2023-02-14T23:04:57.412Z,7.58
2023-02-14T23:07:29.299Z,7.53
2023-02-14T23:10:03.948Z,7.57
2023-02-14T23:15:52.936Z,7.54
2023-02-14T23:18:39.545Z,7.50
2023-02-14T23:21:50.765Z,7.43
2023-02-14T23:24:18.092Z,7.45
2023-02-14T23:26:48.113Z,7.40
2023-02-14T23:29:22.096Z,7.43
2023-02-14T23:31:49.573Z,7.33
2023-02-14T23:34:20.073Z,7.36
2023-02-14T23:36:51.030Z,7.28
2023-02-14T23:39:20.778Z,7.20
2023-02-14T23:41:58.378Z,7.08
2023-02-14T23:44:37.030Z,6.96
2023-02-14T23:47:08.373Z,7.00
2023-02-14T23:49:37.556Z,6.95
2023-02-14T23:52:12.639Z,7.09
2023-02-14T23:54:42.579Z,7.04
2023-02-14T23:57:09.747Z,7.02
2023-02-14T23:59:50.308Z,7.15
